createdAt,value
2023-05-16T00:01:36.942Z,100061.84
2023-05-16T00:04:04.524Z,100065.84
2023-05-16T00:06:32.185Z,100068.03
2023-05-16T00:09:01.109Z,100055.63
2023-05-16T00:11:28.538Z,100061.66
2023-05-16T00:13:55.945Z,100064.84
2023-05-16T00:16:23.255Z,100071.22
2023-05-16T00:18:50.809Z,100061.97
2023-05-16T00:21:18.272Z,100055.78
2023-05-16T00:23:45.558Z,100054.59
2023-05-16T00:26:14.215Z,100053.22
2023-05-16T00:28:41.692Z,100052.56
2023-05-16T00:31:08.957Z,100044.19
2023-05-16T00:33:36.358Z,100045.03
2023-05-16T00:36:03.899Z,100041.19
2023-05-16T00:38:31.216Z,100040.19
2023-05-16T00:40:58.571Z,100038.84
2023-05-16T00:43:27.747Z,100031.81
2023-05-16T00:45:55.171Z,100027.28
2023-05-16T00:48:22.487Z,100024.91
2023-05-16T00:50:50.374Z,100022.75
2023-05-16T00:53:18.482Z,100025.59
2023-05-16T00:55:47.157Z,100017.88
2023-05-16T00:58:14.878Z,100003.63
2023-05-16T01:00:47.156Z,100010.00
2023-05-16T01:03:15.900Z,100007.69
2023-05-16T01:05:43.641Z,100008.84
2023-05-16T01:08:10.999Z,100005.31
2023-05-16T01:10:49.972Z,100005.47
2023-05-16T01:13:24.460Z,100000.97
2023-05-16T01:15:59.868Z,100001.28
2023-05-16T01:18:37.355Z,100000.97
2023-05-16T01:21:10.488Z,100000.97
2023-05-16T01:23:48.195Z,99992.91
2023-05-16T01:26:19.213Z,99990.22
2023-05-16T01:28:46.948Z,99989.22
2023-05-16T01:31:14.450Z,99997.09
2023-05-16T01:33:42.018Z,100001.63
2023-05-16T01:36:17.169Z,99998.59
2023-05-16T01:38:54.593Z,100001.97
2023-05-16T01:41:27.710Z,99995.56
2023-05-16T01:44:02.226Z,99995.19
2023-05-16T01:46:37.271Z,99992.00
2023-05-16T01:49:11.044Z,99994.19
2023-05-16T01:51:41.505Z,99990.34
2023-05-16T01:54:13.068Z,99993.69
2023-05-16T01:56:47.269Z,99992.03
2023-05-16T01:59:15.177Z,99990.03
2023-05-16T02:01:42.506Z,99987.53
2023-05-16T02:04:09.830Z,99986.72
2023-05-16T02:06:37.382Z,99984.19
2023-05-16T02:09:04.708Z,99986.53
2023-05-16T02:11:32.085Z,99983.88
2023-05-16T02:14:00.798Z,99981.50
2023-05-16T02:16:29.627Z,99979.50
2023-05-16T02:18:57.082Z,99979.66
2023-05-16T02:21:24.409Z,99977.97
2023-05-16T02:23:51.772Z,99974.47
2023-05-16T02:26:19.115Z,99977.66
2023-05-16T02:28:46.502Z,99977.31
2023-05-16T02:31:25.930Z,99979.81
2023-05-16T02:33:53.317Z,99977.81
2023-05-16T02:36:20.968Z,99982.16
2023-05-16T02:38:48.442Z,99978.81
2023-05-16T02:41:15.812Z,99977.66
2023-05-16T02:43:45.515Z,99980.31
2023-05-16T02:46:23.138Z,99975.13
2023-05-16T02:48:50.416Z,99977.50
2023-05-16T02:51:18.179Z,99989.72
2023-05-16T02:53:45.617Z,99990.53
2023-05-16T02:56:12.942Z,99984.84
2023-05-16T02:58:40.490Z,99989.72
2023-05-16T03:01:08.062Z,99986.53
2023-05-16T03:03:37.281Z,99985.69
2023-05-16T03:06:04.908Z,99978.16
2023-05-16T03:08:32.507Z,99979.00
2023-05-16T03:10:59.925Z,99973.28
2023-05-16T03:13:27.201Z,99976.13
2023-05-16T03:15:54.603Z,99977.47
2023-05-16T03:18:21.960Z,99973.78
2023-05-16T03:20:50.579Z,99971.81
2023-05-16T03:23:17.930Z,99965.22
2023-05-16T03:25:45.292Z,99969.75
2023-05-16T03:28:14.730Z,99962.53
2023-05-16T03:30:42.678Z,99955.69
2023-05-16T03:33:10.161Z,99956.03
2023-05-16T03:35:38.483Z,99960.38
2023-05-16T03:38:07.191Z,99948.31
2023-05-16T03:40:34.506Z,99946.31
2023-05-16T03:43:03.589Z,99951.66
2023-05-16T03:45:31.429Z,99941.09
2023-05-16T03:47:59.000Z,99951.84
2023-05-16T03:50:26.388Z,99949.16
2023-05-16T03:52:53.831Z,99952.34
2023-05-16T03:55:22.543Z,99948.66
2023-05-16T03:57:49.870Z,99941.59
2023-05-16T04:00:17.489Z,99942.47
2023-05-16T04:02:45.210Z,99946.31
2023-05-16T04:05:12.857Z,99953.31
2023-05-16T04:07:40.534Z,99949.00
2023-05-16T04:10:08.859Z,99945.97
2023-05-16T04:12:37.582Z,99948.31
2023-05-16T04:15:06.425Z,99942.13
2023-05-16T04:17:33.875Z,99951.69
2023-05-16T04:20:01.161Z,99945.00
2023-05-16T04:22:28.445Z,99947.16
2023-05-16T04:24:55.757Z,99948.50
2023-05-16T04:27:23.125Z,99951.34
2023-05-16T04:29:52.049Z,99954.00
2023-05-16T04:32:19.370Z,99955.16
2023-05-16T04:34:46.711Z,99950.00
2023-05-16T04:37:14.132Z,99951.00
2023-05-16T04:39:42.304Z,99946.84
2023-05-16T04:42:09.638Z,99948.16
2023-05-16T04:44:37.080Z,99951.00
2023-05-16T04:47:06.173Z,99957.38
2023-05-16T04:49:33.664Z,99957.38
2023-05-16T04:52:02.099Z,99958.06
2023-05-16T04:54:29.396Z,99973.28
2023-05-16T04:56:56.758Z,99960.06
2023-05-16T04:59:24.066Z,99962.41
2023-05-16T05:01:51.610Z,99963.06
2023-05-16T05:04:20.315Z,99961.22
2023-05-16T05:06:47.629Z,99966.09
2023-05-16T05:09:15.055Z,99969.09
2023-05-16T05:11:42.314Z,99968.25
2023-05-16T05:14:09.757Z,99969.09
2023-05-16T05:16:37.285Z,99974.97
2023-05-16T05:19:04.566Z,99981.16
2023-05-16T05:21:33.617Z,99974.78
2023-05-16T05:24:01.092Z,99971.13
2023-05-16T05:26:28.467Z,99971.63
2023-05-16T05:29:04.702Z,99975.31
2023-05-16T05:31:33.119Z,99980.66
2023-05-16T05:34:00.589Z,99977.16
2023-05-16T05:36:28.206Z,99981.00
2023-05-16T05:38:57.329Z,99985.88
2023-05-16T05:41:24.672Z,99991.56
2023-05-16T05:43:52.022Z,99990.91
2023-05-16T05:46:19.384Z,99990.38
2023-05-16T05:48:46.854Z,99987.22
2023-05-16T05:51:14.235Z,99988.53
2023-05-16T05:53:41.778Z,99996.97
2023-05-16T05:56:10.461Z,99993.75
2023-05-16T05:58:39.398Z,99997.91
2023-05-16T06:01:06.712Z,99993.75
2023-05-16T06:03:34.105Z,99998.28
2023-05-16T06:06:01.492Z,99999.59
2023-05-16T06:08:28.800Z,99991.53
2023-05-16T06:10:56.122Z,100002.78
2023-05-16T06:13:24.958Z,100008.16
2023-05-16T06:15:52.944Z,100013.34
2023-05-16T06:18:20.568Z,100013.69
2023-05-16T06:20:47.977Z,100014.34
2023-05-16T06:23:15.289Z,100014.00
2023-05-16T06:25:42.772Z,100008.31
2023-05-16T06:28:10.135Z,100015.03
2023-05-16T06:30:38.968Z,100021.78
2023-05-16T06:33:06.306Z,100021.91
2023-05-16T06:35:33.782Z,100028.16
2023-05-16T06:38:03.421Z,100022.09
2023-05-16T06:40:30.715Z,100025.78
2023-05-16T06:42:58.137Z,100019.56
2023-05-16T06:45:25.716Z,100022.06
2023-05-16T06:47:57.252Z,100030.63
2023-05-16T06:50:24.995Z,100024.59
2023-05-16T06:52:52.406Z,100026.75
2023-05-16T06:55:19.786Z,100033.97
2023-05-16T06:57:47.128Z,100039.53
2023-05-16T07:00:15.651Z,100041.19
2023-05-16T07:02:43.105Z,100050.44
2023-05-16T07:05:15.024Z,100049.59
2023-05-16T07:07:42.592Z,100044.38
2023-05-16T07:10:11.083Z,100052.78
2023-05-16T07:12:41.708Z,100044.31
2023-05-16T07:15:10.153Z,100058.97
2023-05-16T07:17:37.761Z,100053.72
2023-05-16T07:20:06.373Z,100059.75
2023-05-16T07:22:35.060Z,100044.69
2023-05-16T07:25:02.372Z,100051.34
2023-05-16T07:27:29.903Z,100046.28
2023-05-16T07:29:57.312Z,100053.41
2023-05-16T07:32:24.802Z,100057.69
2023-05-16T07:34:52.122Z,100060.78
2023-05-16T07:37:19.874Z,100057.09
2023-05-16T07:39:48.632Z,100056.09
2023-05-16T07:42:15.992Z,100057.22
2023-05-16T07:44:43.353Z,100062.53
2023-05-16T07:47:10.729Z,100053.28
2023-05-16T07:49:39.162Z,100060.78
2023-05-16T07:52:06.960Z,100064.47
2023-05-16T07:54:35.598Z,100064.00
2023-05-16T07:57:04.782Z,100057.22
2023-05-16T07:59:32.275Z,100064.25
2023-05-16T08:01:59.881Z,100056.63
2023-05-16T08:04:27.339Z,100050.03
2023-05-16T08:06:54.795Z,100053.88
2023-05-16T08:09:23.097Z,100061.13
2023-05-16T08:11:50.607Z,100068.66
2023-05-16T08:14:19.355Z,100054.59
2023-05-16T08:16:46.859Z,100053.44
2023-05-16T08:19:17.317Z,100056.31
2023-05-16T08:21:44.728Z,100063.50
2023-05-16T08:24:12.222Z,100062.19
2023-05-16T08:26:39.599Z,100065.84
2023-05-16T08:29:06.949Z,100065.34
2023-05-16T08:31:35.721Z,100058.19
2023-05-16T08:34:03.145Z,100061.94
2023-05-16T08:36:30.544Z,100071.22
2023-05-16T08:38:57.886Z,100058.78
2023-05-16T08:41:25.199Z,100062.81
2023-05-16T08:43:52.676Z,100060.94
2023-05-16T08:46:23.490Z,100066.56
2023-05-16T08:48:53.787Z,100065.72
2023-05-16T08:51:21.601Z,100050.03
2023-05-16T08:53:54.218Z,100054.97
2023-05-16T08:56:22.908Z,100058.31
2023-05-16T08:58:52.008Z,100061.84
2023-05-16T09:01:19.949Z,100064.59
2023-05-16T09:03:48.006Z,100069.97
2023-05-16T09:06:17.141Z,100069.31
2023-05-16T09:08:44.607Z,100080.44
2023-05-16T09:11:12.264Z,100074.63
2023-05-16T09:13:39.911Z,100076.97
2023-05-16T09:16:11.908Z,100076.38
2023-05-16T09:18:40.243Z,100081.53
2023-05-16T09:21:07.864Z,100077.72
2023-05-16T09:23:37.391Z,100068.94
2023-05-16T09:26:05.854Z,100074.91
2023-05-16T09:28:33.696Z,100072.66
2023-05-16T09:31:01.097Z,100066.38
2023-05-16T09:33:29.251Z,100066.84
2023-05-16T09:35:57.985Z,100058.97
2023-05-16T09:38:26.100Z,100062.50
2023-05-16T09:40:55.580Z,100056.72
2023-05-16T09:43:25.184Z,100058.31
2023-05-16T09:45:53.167Z,100057.16
2023-05-16T09:48:21.562Z,100057.84
2023-05-16T09:50:51.530Z,100056.06
2023-05-16T09:53:24.711Z,100056.59
2023-05-16T09:56:01.991Z,100061.47
2023-05-16T09:58:30.221Z,100042.81
2023-05-16T10:00:58.262Z,100059.44
2023-05-16T10:03:25.910Z,100062.13
2023-05-16T10:05:54.073Z,100065.84
2023-05-16T10:08:22.915Z,100062.78
2023-05-16T10:10:51.908Z,100077.56
2023-05-16T10:13:21.916Z,100072.06
2023-05-16T10:15:49.671Z,100081.63
2023-05-16T10:18:18.196Z,100078.00
2023-05-16T10:20:49.519Z,100078.28
2023-05-16T10:23:18.798Z,100091.84
2023-05-16T10:25:47.806Z,100080.13
2023-05-16T10:28:15.922Z,100078.94
2023-05-16T10:30:46.227Z,100079.13
2023-05-16T10:33:14.555Z,100078.34
2023-05-16T10:35:42.878Z,100075.78
2023-05-16T10:38:11.812Z,100076.34
2023-05-16T10:40:40.545Z,100073.44
2023-05-16T10:43:09.468Z,100070.00
2023-05-16T10:45:40.402Z,100078.81
2023-05-16T10:48:12.643Z,100071.91
2023-05-16T10:50:41.567Z,100070.59
2023-05-16T10:53:16.763Z,100071.03
2023-05-16T10:56:08.912Z,100075.50
2023-05-16T10:58:43.851Z,100067.91
2023-05-16T11:01:33.003Z,100073.66
2023-05-16T11:04:06.226Z,100079.50
2023-05-16T11:06:35.271Z,100081.19
2023-05-16T11:09:07.121Z,100070.81
2023-05-16T11:11:43.162Z,100074.53
2023-05-16T11:14:20.342Z,100069.69
2023-05-16T11:16:50.215Z,100069.16
2023-05-16T11:19:31.859Z,100059.59
2023-05-16T11:22:09.215Z,100079.63
2023-05-16T11:24:37.511Z,100071.03
2023-05-16T11:27:06.042Z,100068.44
2023-05-16T11:29:34.731Z,100067.06
2023-05-16T11:32:03.821Z,100068.75
2023-05-16T11:34:35.765Z,100067.13
2023-05-16T11:37:03.177Z,100072.69
2023-05-16T11:39:31.748Z,100062.16
2023-05-16T11:41:59.314Z,100064.31
2023-05-16T11:44:26.861Z,100067.06
2023-05-16T11:46:54.290Z,100066.09
2023-05-16T11:49:21.801Z,100069.97
2023-05-16T11:51:50.542Z,100058.78
2023-05-16T11:54:19.042Z,100068.94
2023-05-16T11:56:46.568Z,100064.81
2023-05-16T11:59:13.992Z,100067.97
2023-05-16T12:01:41.437Z,100068.03
2023-05-16T12:04:09.371Z,100063.66
2023-05-16T12:06:36.922Z,100059.91
2023-05-16T12:09:05.977Z,100069.78
2023-05-16T12:11:33.600Z,100073.47
2023-05-16T12:14:01.282Z,100076.16
2023-05-16T12:16:28.972Z,100076.84
2023-05-16T12:18:56.450Z,100078.41
2023-05-16T12:21:24.384Z,100078.41
2023-05-16T12:23:55.638Z,100074.56
2023-05-16T12:26:27.127Z,100064.50
2023-05-16T12:28:54.514Z,100063.34
2023-05-16T12:31:30.241Z,100076.84
2023-05-16T12:33:59.369Z,100065.09
2023-05-16T12:36:31.160Z,100065.38
2023-05-16T12:39:00.705Z,100067.31
2023-05-16T12:41:30.504Z,100065.66
2023-05-16T12:44:07.398Z,100064.38
2023-05-16T12:46:34.718Z,100067.50
2023-05-16T12:49:03.100Z,100065.38
2023-05-16T12:51:30.423Z,100057.81
2023-05-16T12:54:09.435Z,100061.66
2023-05-16T12:56:39.418Z,100060.38
2023-05-16T12:59:07.110Z,100059.09
2023-05-16T13:01:34.592Z,100057.63
2023-05-16T13:04:02.210Z,100052.81
2023-05-16T13:06:36.772Z,100055.88
2023-05-16T13:09:12.703Z,100042.06
2023-05-16T13:11:41.560Z,100032.34
2023-05-16T13:14:08.888Z,100038.59
2023-05-16T13:16:36.541Z,100038.34
2023-05-16T13:19:03.937Z,100036.94
2023-05-16T13:21:31.447Z,100044.22
2023-05-16T13:23:58.811Z,100052.94
2023-05-16T13:26:26.175Z,100043.19
2023-05-16T13:28:54.974Z,100022.94
2023-05-16T13:31:22.480Z,100025.22
2023-05-16T13:33:50.017Z,100028.91
2023-05-16T13:36:17.489Z,100027.94
2023-05-16T13:38:44.852Z,100029.81
2023-05-16T13:41:12.431Z,100016.28
2023-05-16T13:43:39.925Z,100024.00
2023-05-16T13:46:08.725Z,100024.19
2023-05-16T13:48:36.225Z,100031.19
2023-05-16T13:51:03.852Z,100029.56
2023-05-16T13:53:31.188Z,100027.75
2023-05-16T13:55:58.496Z,100032.44
2023-05-16T13:58:25.942Z,100031.28
2023-05-16T14:00:53.627Z,100028.94
2023-05-16T14:03:22.767Z,100023.34
2023-05-16T14:05:50.196Z,100026.88
2023-05-16T14:08:17.539Z,100028.63
2023-05-16T14:10:44.965Z,100029.84
2023-05-16T14:13:12.285Z,100014.22
2023-05-16T14:15:39.836Z,100019.09
2023-05-16T14:18:07.234Z,100022.34
2023-05-16T14:20:35.972Z,100027.72
2023-05-16T14:23:03.439Z,100031.28
2023-05-16T14:25:31.058Z,100022.56
2023-05-16T14:27:58.521Z,100000.25
2023-05-16T14:30:26.173Z,100032.63
2023-05-16T14:32:53.689Z,100020.94
2023-05-16T14:35:21.107Z,100032.28
2023-05-16T14:37:50.019Z,100008.56
2023-05-16T14:40:17.390Z,100012.31
2023-05-16T14:42:44.713Z,100022.72
2023-05-16T14:45:12.235Z,100033.00
2023-05-16T14:47:39.853Z,100034.75
2023-05-16T14:50:09.581Z,100034.56
2023-05-16T14:52:37.961Z,100027.50
2023-05-16T14:55:06.970Z,100026.78
2023-05-16T14:57:34.298Z,100029.34
2023-05-16T15:00:01.691Z,100022.84
2023-05-16T15:02:29.110Z,100027.59
2023-05-16T15:04:56.628Z,100014.34
2023-05-16T15:07:24.969Z,100005.88
2023-05-16T15:09:52.377Z,100005.63
2023-05-16T15:12:21.308Z,100002.97
2023-05-16T15:14:48.639Z,100012.25
2023-05-16T15:17:15.947Z,100026.22
2023-05-16T15:19:43.546Z,100017.09
2023-05-16T15:22:11.005Z,100028.84
2023-05-16T15:24:38.415Z,100024.31
2023-05-16T15:27:06.073Z,100025.44
2023-05-16T15:29:34.790Z,100023.13
2023-05-16T15:32:05.041Z,100026.28
2023-05-16T15:34:33.637Z,100020.63
2023-05-16T15:37:01.549Z,100024.00
2023-05-16T15:39:28.885Z,100027.03
2023-05-16T15:42:10.223Z,100025.19
2023-05-16T15:44:40.168Z,100031.09
2023-05-16T15:47:07.951Z,100030.75
2023-05-16T15:49:35.527Z,100036.09
2023-05-16T15:52:03.162Z,100034.84
2023-05-16T15:54:30.810Z,100031.25
2023-05-16T15:56:58.652Z,100028.84
2023-05-16T15:59:26.000Z,100029.97
2023-05-16T16:01:54.788Z,100022.63
2023-05-16T16:04:23.364Z,100021.16
2023-05-16T16:06:51.257Z,100029.13
2023-05-16T16:09:18.586Z,100023.53
2023-05-16T16:11:46.240Z,100027.75
2023-05-16T16:14:13.609Z,100020.25
2023-05-16T16:16:41.653Z,100028.13
2023-05-16T16:19:10.497Z,100028.38
2023-05-16T16:21:37.851Z,100022.31
2023-05-16T16:24:06.128Z,100031.28
2023-05-16T16:26:33.497Z,100042.72
2023-05-16T16:29:00.910Z,100039.59
2023-05-16T16:31:28.353Z,100042.75
2023-05-16T16:33:55.716Z,100044.81
2023-05-16T16:36:24.637Z,100052.78
2023-05-16T16:38:52.207Z,100062.44
2023-05-16T16:41:19.826Z,100059.44
2023-05-16T16:43:47.192Z,100057.75
2023-05-16T16:46:14.722Z,100064.19
2023-05-16T16:48:42.171Z,100057.38
2023-05-16T16:51:10.956Z,100049.78
2023-05-16T16:53:39.661Z,100053.66
2023-05-16T16:56:07.385Z,100058.53
2023-05-16T16:58:34.718Z,100060.06
2023-05-16T17:01:02.089Z,100061.03
2023-05-16T17:03:29.753Z,100060.19
2023-05-16T17:05:57.136Z,100063.59
2023-05-16T17:08:25.141Z,100059.13
2023-05-16T17:10:53.879Z,100060.06
2023-05-16T17:13:21.167Z,100061.50
2023-05-16T17:15:48.556Z,100062.31
2023-05-16T17:18:15.935Z,100061.22
2023-05-16T17:20:43.573Z,100058.41
2023-05-16T17:23:11.065Z,100068.00
2023-05-16T17:25:38.436Z,100067.28
2023-05-16T17:28:07.133Z,100061.16
2023-05-16T17:30:34.633Z,100070.75
2023-05-16T17:33:02.340Z,100065.75
2023-05-16T17:35:30.054Z,100079.25
2023-05-16T17:37:57.569Z,100079.09
2023-05-16T17:40:24.999Z,100080.19
2023-05-16T17:42:52.410Z,100081.94
2023-05-16T17:45:21.160Z,100083.59
2023-05-16T17:47:48.565Z,100067.19
2023-05-16T17:50:16.058Z,100085.59
2023-05-16T17:52:43.497Z,100080.34
2023-05-16T17:55:10.901Z,100089.53
2023-05-16T17:57:38.387Z,100097.16
2023-05-16T18:00:06.956Z,100092.72
2023-05-16T18:02:38.325Z,100086.91
2023-05-16T18:05:07.284Z,100099.38
2023-05-16T18:07:34.722Z,100098.00
2023-05-16T18:10:02.117Z,100103.97
2023-05-16T18:12:32.398Z,100103.88
2023-05-16T18:14:59.714Z,100106.66
2023-05-16T18:17:27.293Z,100113.16
2023-05-16T18:19:56.215Z,100114.47
2023-05-16T18:22:23.777Z,100116.91
2023-05-16T18:24:51.121Z,100122.00
2023-05-16T18:27:18.583Z,100119.69
2023-05-16T18:29:48.474Z,100118.84
2023-05-16T18:32:16.091Z,100123.22
2023-05-16T18:34:43.560Z,100120.13
2023-05-16T18:37:12.550Z,100132.97
2023-05-16T18:39:39.895Z,100128.97
2023-05-16T18:42:07.803Z,100131.66
2023-05-16T18:44:35.211Z,100133.78
2023-05-16T18:47:03.235Z,100132.94
2023-05-16T18:49:30.744Z,100142.50
2023-05-16T18:51:58.056Z,100152.81
2023-05-16T18:54:27.038Z,100148.75
2023-05-16T18:56:54.451Z,100151.84
2023-05-16T18:59:21.805Z,100152.72
2023-05-16T19:01:49.149Z,100160.97
2023-05-16T19:04:16.569Z,100169.31
2023-05-16T19:06:44.036Z,100163.19
2023-05-16T19:09:11.697Z,100166.97
2023-05-16T19:11:40.712Z,100175.25
2023-05-16T19:14:08.245Z,100181.81
2023-05-16T19:16:35.585Z,100186.75
2023-05-16T19:19:03.113Z,100194.81
2023-05-16T19:21:30.691Z,100196.34
2023-05-16T19:23:58.095Z,100195.63
2023-05-16T19:26:25.522Z,100203.63
2023-05-16T19:28:54.455Z,100201.84
2023-05-16T19:31:21.796Z,100205.03
2023-05-16T19:33:49.085Z,100213.94
2023-05-16T19:36:16.631Z,100216.13
2023-05-16T19:38:44.057Z,100220.00
2023-05-16T19:41:11.501Z,100222.78
2023-05-16T19:43:38.905Z,100225.13
2023-05-16T19:46:07.654Z,100221.78
2023-05-16T19:48:35.159Z,100230.34
2023-05-16T19:51:02.624Z,100229.00
2023-05-16T19:53:30.053Z,100232.84
2023-05-16T19:55:57.415Z,100232.69
2023-05-16T19:58:24.790Z,100241.94
2023-05-16T20:00:52.185Z,100241.09
2023-05-16T20:03:21.707Z,100241.28
2023-05-16T20:05:49.124Z,100242.63
2023-05-16T20:08:16.495Z,100247.03
2023-05-16T20:10:44.186Z,100240.38
2023-05-16T20:13:11.561Z,100247.00
2023-05-16T20:15:38.903Z,100249.19
2023-05-16T20:18:06.481Z,100252.53
2023-05-16T20:20:35.320Z,100255.88
2023-05-16T20:23:02.694Z,100264.09
2023-05-16T20:25:30.467Z,100276.03
2023-05-16T20:27:58.156Z,100268.78
2023-05-16T20:30:25.594Z,100280.94
2023-05-16T20:32:53.070Z,100269.75
2023-05-16T20:35:20.515Z,100275.44
2023-05-16T20:37:49.340Z,100277.66
2023-05-16T20:40:16.845Z,100278.50
2023-05-16T20:42:44.397Z,100278.16
2023-05-16T20:45:12.007Z,100275.75
2023-05-16T20:47:39.439Z,100278.63
2023-05-16T20:50:08.029Z,100286.34
2023-05-16T20:52:35.521Z,100292.28
2023-05-16T20:55:04.961Z,100294.44
2023-05-16T20:57:32.392Z,100289.09
2023-05-16T20:59:59.770Z,100302.38
2023-05-16T21:02:27.456Z,100300.00
2023-05-16T21:04:56.066Z,100301.16
2023-05-16T21:07:23.599Z,100302.31
2023-05-16T21:09:50.951Z,100304.69
2023-05-16T21:12:19.735Z,100308.72
2023-05-16T21:14:47.068Z,100307.03
2023-05-16T21:17:14.640Z,100310.72
2023-05-16T21:19:42.272Z,100316.47
2023-05-16T21:22:09.821Z,100313.09
2023-05-16T21:24:37.276Z,100313.88
2023-05-16T21:27:05.290Z,100310.00
2023-05-16T21:29:34.011Z,100314.53
2023-05-16T21:32:01.394Z,100322.38
2023-05-16T21:34:28.760Z,100315.53
2023-05-16T21:36:56.103Z,100325.81
2023-05-16T21:39:23.437Z,100321.44
2023-05-16T21:41:50.806Z,100316.72
2023-05-16T21:44:18.283Z,100321.44
2023-05-16T21:46:47.204Z,100320.75
2023-05-16T21:49:14.598Z,100317.69
2023-05-16T21:51:41.902Z,100321.56
2023-05-16T21:54:09.353Z,100322.41
2023-05-16T21:56:36.851Z,100326.00
2023-05-16T21:59:04.227Z,100322.38
2023-05-16T22:01:31.895Z,100318.97
2023-05-16T22:04:00.657Z,100322.94
2023-05-16T22:06:28.187Z,100326.63
2023-05-16T22:08:55.481Z,100321.88
2023-05-16T22:11:22.873Z,100315.69
2023-05-16T22:13:50.818Z,100330.97
2023-05-16T22:16:18.805Z,100326.22
2023-05-16T22:18:46.398Z,100337.00
2023-05-16T22:21:15.318Z,100334.47
2023-05-16T22:23:42.916Z,100334.03
2023-05-16T22:26:10.386Z,100337.72
2023-05-16T22:28:37.738Z,100334.19
2023-05-16T22:31:05.219Z,100335.44
2023-05-16T22:33:32.726Z,100339.16
2023-05-16T22:36:00.248Z,100336.63
2023-05-16T22:38:29.023Z,100345.47
2023-05-16T22:40:56.368Z,100344.13
2023-05-16T22:43:23.719Z,100347.75
2023-05-16T22:45:51.237Z,100343.69
2023-05-16T22:48:18.732Z,100348.66
2023-05-16T22:50:46.230Z,100347.19
2023-05-16T22:53:13.807Z,100345.94
2023-05-16T22:55:42.641Z,100350.72
2023-05-16T22:58:09.976Z,100348.03
2023-05-16T23:00:37.405Z,100341.97
2023-05-16T23:03:04.947Z,100343.19
2023-05-16T23:05:32.536Z,100334.94
2023-05-16T23:07:59.897Z,100342.44
2023-05-16T23:10:27.297Z,100339.31
2023-05-16T23:12:56.077Z,100338.06
2023-05-16T23:15:23.477Z,100328.81
2023-05-16T23:17:50.844Z,100323.31
2023-05-16T23:20:18.441Z,100326.91
2023-05-16T23:22:45.765Z,100326.06
2023-05-16T23:25:13.175Z,100330.88
2023-05-16T23:27:40.505Z,100321.78
2023-05-16T23:30:10.774Z,100324.44
2023-05-16T23:32:38.357Z,100322.94
2023-05-16T23:35:06.642Z,100312.53
2023-05-16T23:37:34.171Z,100321.00
2023-05-16T23:40:01.531Z,100316.97
2023-05-16T23:42:29.135Z,100311.69
2023-05-16T23:44:56.480Z,100308.78
2023-05-16T23:47:25.350Z,100304.50
2023-05-16T23:49:52.952Z,100307.41
2023-05-16T23:52:20.322Z,100299.13
2023-05-16T23:54:47.726Z,100299.19
2023-05-16T23:57:15.075Z,100296.66
2023-05-16T23:59:42.595Z,100302.66
